sensor_id;sensor_type;location;lat;lon;timestamp;pressure;altitude;pressure_sealevel;temperature;humidity
53932;BME280;39844;52.496;13.482;2024-03-02T00:00:49;100405.00;;;7.70;100.00
53932;BME280;39844;52.496;13.482;2024-03-02T00:03:14;100397.16;;;7.70;100.00
53932;BME280;39844;52.496;13.482;2024-03-02T00:05:40;100397.16;;;7.70;100.00
53932;BME280;39844;52.496;13.482;2024-03-02T00:08:06;100398.88;;;7.71;100.00
53932;BME280;39844;52.496;13.482;2024-03-02T00:10:37;100392.78;;;7.72;100.00
53932;BME280;39844;52.496;13.482;2024-03-02T00:13:03;100390.19;;;7.75;100.00
53932;BME280;39844;52.496;13.482;2024-03-02T00:15:47;100387.56;;;7.76;100.00
53932;BME280;39844;52.496;13.482;2024-03-02T00:18:14;100391.06;;;7.77;100.00
53932;BME280;39844;52.496;13.482;2024-03-02T00:20:41;100386.72;;;7.77;100.00
53932;BME280;39844;52.496;13.482;2024-03-02T00:23:08;100386.72;;;7.79;100.00
53932;BME280;39844;52.496;13.482;2024-03-02T00:25:45;100378.91;;;7.80;100.00
53932;BME280;39844;52.496;13.482;2024-03-02T00:28:29;100379.75;;;7.81;100.00
53932;BME280;39844;52.496;13.482;2024-03-02T00:30:57;100376.28;;;7.82;100.00
53932;BME280;39844;52.496;13.482;2024-03-02T00:33:24;100387.59;;;7.82;100.00
53932;BME280;39844;52.496;13.482;2024-03-02T00:35:51;100372.78;;;7.81;100.00
53932;BME280;39844;52.496;13.482;2024-03-02T00:38:16;100378.03;;;7.83;100.00
53932;BME280;39844;52.496;13.482;2024-03-02T00:40:42;100378.88;;;7.82;100.00
53932;BME280;39844;52.496;13.482;2024-03-02T00:46:04;100380.63;;;7.81;100.00
53932;BME280;39844;52.496;13.482;2024-03-02T00:48:30;100376.28;;;7.82;100.00
53932;BME280;39844;52.496;13.482;2024-03-02T00:50:55;100383.25;;;7.83;100.00
53932;BME280;39844;52.496;13.482;2024-03-02T00:53:23;100379.75;;;7.82;100.00
53932;BME280;39844;52.496;13.482;2024-03-02T00:55:48;100379.75;;;7.82;100.00
53932;BME280;39844;52.496;13.482;2024-03-02T00:58:14;100378.03;;;7.83;100.00
53932;BME280;39844;52.496;13.482;2024-03-02T01:00:39;100376.28;;;7.85;100.00
53932;BME280;39844;52.496;13.482;2024-03-02T01:03:04;100375.41;;;7.86;100.00
53932;BME280;39844;52.496;13.482;2024-03-02T01:05:29;100380.63;;;7.89;100.00
53932;BME280;39844;52.496;13.482;2024-03-02T01:07:55;100384.09;;;7.91;100.00
53932;BME280;39844;52.496;13.482;2024-03-02T01:10:20;100374.56;;;7.93;100.00
53932;BME280;39844;52.496;13.482;2024-03-02T01:12:45;100373.69;;;7.97;100.00
53932;BME280;39844;52.496;13.482;2024-03-02T01:15:11;100365.84;;;8.01;100.00
53932;BME280;39844;52.496;13.482;2024-03-02T01:17:36;100364.97;;;8.04;100.00
53932;BME280;39844;52.496;13.482;2024-03-02T01:20:01;100369.34;;;8.08;100.00
53932;BME280;39844;52.496;13.482;2024-03-02T01:22:27;100372.81;;;8.10;100.00
53932;BME280;39844;52.496;13.482;2024-03-02T01:24:52;100368.44;;;8.12;100.00
53932;BME280;39844;52.496;13.482;2024-03-02T01:27:17;100351.03;;;8.14;100.00
53932;BME280;39844;52.496;13.482;2024-03-02T01:29:42;100363.22;;;8.15;100.00
53932;BME280;39844;52.496;13.482;2024-03-02T01:32:08;100362.34;;;8.17;100.00
53932;BME280;39844;52.496;13.482;2024-03-02T01:34:33;100368.47;;;8.18;100.00
53932;BME280;39844;52.496;13.482;2024-03-02T01:36:58;100359.75;;;8.20;100.00
53932;BME280;39844;52.496;13.482;2024-03-02T01:39:24;100355.41;;;8.21;100.00
53932;BME280;39844;52.496;13.482;2024-03-02T01:41:49;100346.66;;;8.22;100.00
53932;BME280;39844;52.496;13.482;2024-03-02T01:44:14;100352.75;;;8.24;100.00
53932;BME280;39844;52.496;13.482;2024-03-02T01:46:40;100344.94;;;8.25;100.00
53932;BME280;39844;52.496;13.482;2024-03-02T01:49:06;100341.47;;;8.30;100.00
53932;BME280;39844;52.496;13.482;2024-03-02T01:51:31;100339.72;;;8.32;100.00
53932;BME280;39844;52.496;13.482;2024-03-02T01:53:56;100340.59;;;8.32;100.00
53932;BME280;39844;52.496;13.482;2024-03-02T01:56:22;100332.75;;;8.32;100.00
53932;BME280;39844;52.496;13.482;2024-03-02T01:58:47;100333.59;;;8.34;100.00
53932;BME280;39844;52.496;13.482;2024-03-02T02:01:12;100331.00;;;8.34;100.00
53932;BME280;39844;52.496;13.482;2024-03-02T02:03:37;100329.28;;;8.33;100.00
53932;BME280;39844;52.496;13.482;2024-03-02T02:06:03;100330.13;;;8.32;100.00
53932;BME280;39844;52.496;13.482;2024-03-02T02:08:28;100326.66;;;8.33;100.00
53932;BME280;39844;52.496;13.482;2024-03-02T02:10:54;100318.81;;;8.33;100.00
53932;BME280;39844;52.496;13.482;2024-03-02T02:13:19;100318.81;;;8.36;100.00
53932;BME280;39844;52.496;13.482;2024-03-02T02:15:44;100320.56;;;8.39;100.00
53932;BME280;39844;52.496;13.482;2024-03-02T02:18:09;100324.91;;;8.41;100.00
53932;BME280;39844;52.496;13.482;2024-03-02T02:20:35;100320.53;;;8.42;100.00
53932;BME280;39844;52.496;13.482;2024-03-02T02:23:02;100319.69;;;8.41;100.00
53932;BME280;39844;52.496;13.482;2024-03-02T02:25:28;100313.56;;;8.41;100.00
53932;BME280;39844;52.496;13.482;2024-03-02T02:27:54;100310.06;;;8.42;100.00
53932;BME280;39844;52.496;13.482;2024-03-02T02:30:30;100316.16;;;8.42;100.00
53932;BME280;39844;52.496;13.482;2024-03-02T02:32:56;100314.44;;;8.41;100.00
53932;BME280;39844;52.496;13.482;2024-03-02T02:35:22;100318.78;;;8.42;100.00
53932;BME280;39844;52.496;13.482;2024-03-02T02:37:48;100323.16;;;8.40;100.00
53932;BME280;39844;52.496;13.482;2024-03-02T02:40:14;100324.03;;;8.41;100.00
53932;BME280;39844;52.496;13.482;2024-03-02T02:42:40;100331.84;;;8.39;100.00
53932;BME280;39844;52.496;13.482;2024-03-02T02:45:06;100326.63;;;8.39;100.00
53932;BME280;39844;52.496;13.482;2024-03-02T02:47:31;100325.78;;;8.39;100.00
53932;BME280;39844;52.496;13.482;2024-03-02T02:49:56;100326.63;;;8.39;100.00
53932;BME280;39844;52.496;13.482;2024-03-02T02:52:22;100328.38;;;8.40;100.00
53932;BME280;39844;52.496;13.482;2024-03-02T02:54:47;100334.50;;;8.41;100.00
53932;BME280;39844;52.496;13.482;2024-03-02T02:57:12;100331.00;;;8.43;100.00
53932;BME280;39844;52.496;13.482;2024-03-02T02:59:38;100324.88;;;8.44;100.00
53932;BME280;39844;52.496;13.482;2024-03-02T03:02:03;100331.00;;;8.46;100.00
53932;BME280;39844;52.496;13.482;2024-03-02T03:04:28;100333.63;;;8.46;100.00
53932;BME280;39844;52.496;13.482;2024-03-02T03:06:53;100337.09;;;8.45;100.00
53932;BME280;39844;52.496;13.482;2024-03-02T03:09:19;100331.84;;;8.45;100.00
53932;BME280;39844;52.496;13.482;2024-03-02T03:11:44;100328.38;;;8.46;100.00
53932;BME280;39844;52.496;13.482;2024-03-02T03:14:09;100329.22;;;8.47;100.00
53932;BME280;39844;52.496;13.482;2024-03-02T03:16:35;100326.59;;;8.47;100.00
53932;BME280;39844;52.496;13.482;2024-03-02T03:19:00;100331.00;;;8.46;100.00
53932;BME280;39844;52.496;13.482;2024-03-02T03:21:25;100330.09;;;8.47;100.00
53932;BME280;39844;52.496;13.482;2024-03-02T03:23:51;100333.56;;;8.49;100.00
53932;BME280;39844;52.496;13.482;2024-03-02T03:26:16;100327.50;;;8.50;100.00
53932;BME280;39844;52.496;13.482;2024-03-02T03:28:41;100325.75;;;8.51;100.00
53932;BME280;39844;52.496;13.482;2024-03-02T03:31:06;100327.50;;;8.53;100.00
53932;BME280;39844;52.496;13.482;2024-03-02T03:33:32;100317.88;;;8.55;100.00
53932;BME280;39844;52.496;13.482;2024-03-02T03:35:57;100319.63;;;8.58;100.00
53932;BME280;39844;52.496;13.482;2024-03-02T03:38:22;100317.88;;;8.58;100.00
53932;BME280;39844;52.496;13.482;2024-03-02T03:40:48;100318.75;;;8.57;100.00
53932;BME280;39844;52.496;13.482;2024-03-02T03:43:13;100323.13;;;8.58;100.00
53932;BME280;39844;52.496;13.482;2024-03-02T03:45:38;100330.06;;;8.59;100.00
53932;BME280;39844;52.496;13.482;2024-03-02T03:48:04;100323.13;;;8.58;100.00
53932;BME280;39844;52.496;13.482;2024-03-02T03:50:29;100319.66;;;8.56;100.00
53932;BME280;39844;52.496;13.482;2024-03-02T03:52:54;100331.81;;;8.54;100.00
53932;BME280;39844;52.496;13.482;2024-03-02T03:55:20;100331.81;;;8.54;100.00
53932;BME280;39844;52.496;13.482;2024-03-02T03:57:45;100330.97;;;8.55;100.00
53932;BME280;39844;52.496;13.482;2024-03-02T04:00:11;100333.56;;;8.55;100.00
53932;BME280;39844;52.496;13.482;2024-03-02T04:02:36;100350.16;;;8.59;100.00
53932;BME280;39844;52.496;13.482;2024-03-02T04:05:01;100337.06;;;8.60;100.00
53932;BME280;39844;52.496;13.482;2024-03-02T04:07:27;100333.56;;;8.61;100.00
53932;BME280;39844;52.496;13.482;2024-03-02T04:09:52;100332.69;;;8.62;100.00
53932;BME280;39844;52.496;13.482;2024-03-02T04:12:17;100330.06;;;8.65;100.00
53932;BME280;39844;52.496;13.482;2024-03-02T04:14:42;100336.16;;;8.67;100.00
53932;BME280;39844;52.496;13.482;2024-03-02T04:17:08;100328.31;;;8.69;100.00
53932;BME280;39844;52.496;13.482;2024-03-02T04:19:33;100337.06;;;8.69;100.00
53932;BME280;39844;52.496;13.482;2024-03-02T04:21:58;100328.31;;;8.69;100.00
53932;BME280;39844;52.496;13.482;2024-03-02T04:24:24;100333.53;;;8.67;100.00
53932;BME280;39844;52.496;13.482;2024-03-02T04:26:49;100332.69;;;8.67;100.00
53932;BME280;39844;52.496;13.482;2024-03-02T04:29:16;100326.59;;;8.69;100.00
53932;BME280;39844;52.496;13.482;2024-03-02T04:31:41;100331.81;;;8.69;100.00
53932;BME280;39844;52.496;13.482;2024-03-02T04:34:07;100328.31;;;8.67;100.00
53932;BME280;39844;52.496;13.482;2024-03-02T04:36:32;100339.66;;;8.65;100.00
53932;BME280;39844;52.496;13.482;2024-03-02T04:38:58;100335.31;;;8.65;100.00
53932;BME280;39844;52.496;13.482;2024-03-02T04:41:23;100348.38;;;8.65;100.00
53932;BME280;39844;52.496;13.482;2024-03-02T04:43:48;100336.19;;;8.66;100.00
53932;BME280;39844;52.496;13.482;2024-03-02T04:46:13;100341.41;;;8.66;100.00
53932;BME280;39844;52.496;13.482;2024-03-02T04:48:39;100353.63;;;8.65;100.00
53932;BME280;39844;52.496;13.482;2024-03-02T04:51:04;100357.09;;;8.66;100.00
53932;BME280;39844;52.496;13.482;2024-03-02T04:53:29;100358.84;;;8.65;100.00
53932;BME280;39844;52.496;13.482;2024-03-02T04:55:54;100361.47;;;8.65;100.00
53932;BME280;39844;52.496;13.482;2024-03-02T04:58:20;100359.72;;;8.67;100.00
53932;BME280;39844;52.496;13.482;2024-03-02T05:00:45;100360.59;;;8.66;100.00
53932;BME280;39844;52.496;13.482;2024-03-02T05:03:10;100360.59;;;8.66;100.00
53932;BME280;39844;52.496;13.482;2024-03-02T05:05:36;100357.97;;;8.66;100.00
53932;BME280;39844;52.496;13.482;2024-03-02T05:08:01;100362.31;;;8.67;100.00
53932;BME280;39844;52.496;13.482;2024-03-02T05:10:26;100365.84;;;8.66;100.00
53932;BME280;39844;52.496;13.482;2024-03-02T05:12:51;100372.81;;;8.66;100.00
53932;BME280;39844;52.496;13.482;2024-03-02T05:15:17;100371.03;;;8.65;100.00
53932;BME280;39844;52.496;13.482;2024-03-02T05:17:42;100382.38;;;8.65;100.00
53932;BME280;39844;52.496;13.482;2024-03-02T05:20:08;100381.53;;;8.66;100.00
53932;BME280;39844;52.496;13.482;2024-03-02T05:22:34;100386.75;;;8.65;100.00
53932;BME280;39844;52.496;13.482;2024-03-02T05:25:03;100392.84;;;8.65;100.00
53932;BME280;39844;52.496;13.482;2024-03-02T05:27:28;100392.84;;;8.65;100.00
53932;BME280;39844;52.496;13.482;2024-03-02T05:29:54;100399.84;;;8.66;100.00
53932;BME280;39844;52.496;13.482;2024-03-02T05:32:19;100397.22;;;8.68;100.00
53932;BME280;39844;52.496;13.482;2024-03-02T05:34:44;100398.06;;;8.70;100.00
53932;BME280;39844;52.496;13.482;2024-03-02T05:37:10;100394.59;;;8.71;100.00
53932;BME280;39844;52.496;13.482;2024-03-02T05:39:35;100394.56;;;8.72;100.00
53932;BME280;39844;52.496;13.482;2024-03-02T05:42:00;100395.47;;;8.74;100.00
53932;BME280;39844;52.496;13.482;2024-03-02T05:44:26;100401.56;;;8.76;100.00
53932;BME280;39844;52.496;13.482;2024-03-02T05:46:51;100405.94;;;8.76;100.00
53932;BME280;39844;52.496;13.482;2024-03-02T05:49:16;100405.94;;;8.76;100.00
53932;BME280;39844;52.496;13.482;2024-03-02T05:51:42;100412.03;;;8.78;100.00
53932;BME280;39844;52.496;13.482;2024-03-02T05:54:07;100419.88;;;8.78;100.00
53932;BME280;39844;52.496;13.482;2024-03-02T05:56:32;100415.53;;;8.77;100.00
53932;BME280;39844;52.496;13.482;2024-03-02T05:58:58;100416.38;;;8.77;100.00
53932;BME280;39844;52.496;13.482;2024-03-02T06:01:23;100413.75;;;8.77;100.00
53932;BME280;39844;52.496;13.482;2024-03-02T06:03:48;100413.75;;;8.77;100.00
53932;BME280;39844;52.496;13.482;2024-03-02T06:06:14;100411.13;;;8.77;100.00
53932;BME280;39844;52.496;13.482;2024-03-02T06:08:39;100426.00;;;8.77;100.00
53932;BME280;39844;52.496;13.482;2024-03-02T06:11:04;100424.22;;;8.77;100.00
53932;BME280;39844;52.496;13.482;2024-03-02T06:13:29;100428.59;;;8.75;100.00
53932;BME280;39844;52.496;13.482;2024-03-02T06:15:55;100428.59;;;8.75;100.00
53932;BME280;39844;52.496;13.482;2024-03-02T06:18:20;100425.09;;;8.75;100.00
53932;BME280;39844;52.496;13.482;2024-03-02T06:20:45;100419.03;;;8.74;100.00
53932;BME280;39844;52.496;13.482;2024-03-02T06:23:11;100417.28;;;8.73;100.00
53932;BME280;39844;52.496;13.482;2024-03-02T06:25:36;100429.50;;;8.74;100.00
53932;BME280;39844;52.496;13.482;2024-03-02T06:28:02;100419.03;;;8.74;100.00
53932;BME280;39844;52.496;13.482;2024-03-02T06:30:29;100425.13;;;8.73;100.00
53932;BME280;39844;52.496;13.482;2024-03-02T06:32:55;100425.13;;;8.73;100.00
53932;BME280;39844;52.496;13.482;2024-03-02T06:35:20;100422.50;;;8.73;100.00
53932;BME280;39844;52.496;13.482;2024-03-02T06:37:45;100425.13;;;8.73;100.00
53932;BME280;39844;52.496;13.482;2024-03-02T06:40:10;100425.09;;;8.75;100.00
53932;BME280;39844;52.496;13.482;2024-03-02T06:42:36;100434.69;;;8.77;100.00
53932;BME280;39844;52.496;13.482;2024-03-02T06:45:02;100428.59;;;8.78;100.00
53932;BME280;39844;52.496;13.482;2024-03-02T06:47:27;100431.22;;;8.78;100.00
53932;BME280;39844;52.496;13.482;2024-03-02T06:49:52;100438.22;;;8.79;100.00
53932;BME280;39844;52.496;13.482;2024-03-02T06:52:18;100442.53;;;8.80;100.00
53932;BME280;39844;52.496;13.482;2024-03-02T06:54:43;100446.91;;;8.81;100.00
53932;BME280;39844;52.496;13.482;2024-03-02T06:57:08;100443.41;;;8.82;100.00
53932;BME280;39844;52.496;13.482;2024-03-02T06:59:34;100441.69;;;8.84;100.00
53932;BME280;39844;52.496;13.482;2024-03-02T07:01:59;100446.03;;;8.84;100.00
53932;BME280;39844;52.496;13.482;2024-03-02T07:04:24;100446.03;;;8.84;100.00
53932;BME280;39844;52.496;13.482;2024-03-02T07:06:50;100454.78;;;8.84;100.00
53932;BME280;39844;52.496;13.482;2024-03-02T07:09:15;100453.88;;;8.85;100.00
53932;BME280;39844;52.496;13.482;2024-03-02T07:11:40;100450.38;;;8.88;100.00
53932;BME280;39844;52.496;13.482;2024-03-02T07:14:06;100444.28;;;8.87;100.00
53932;BME280;39844;52.496;13.482;2024-03-02T07:16:31;100448.63;;;8.90;100.00
53932;BME280;39844;52.496;13.482;2024-03-02T07:18:56;100448.63;;;8.90;100.00
53932;BME280;39844;52.496;13.482;2024-03-02T07:21:22;100453.00;;;8.91;100.00
53932;BME280;39844;52.496;13.482;2024-03-02T07:23:48;100458.22;;;8.93;100.00
53932;BME280;39844;52.496;13.482;2024-03-02T07:26:14;100457.34;;;8.95;100.00
53932;BME280;39844;52.496;13.482;2024-03-02T07:28:39;100467.84;;;8.97;100.00
53932;BME280;39844;52.496;13.482;2024-03-02T07:31:04;100464.31;;;8.98;100.00
53932;BME280;39844;52.496;13.482;2024-03-02T07:33:30;100459.97;;;8.97;100.00
53932;BME280;39844;52.496;13.482;2024-03-02T07:35:56;100466.06;;;8.99;100.00
53932;BME280;39844;52.496;13.482;2024-03-02T07:38:22;100479.16;;;8.99;100.00
53932;BME280;39844;52.496;13.482;2024-03-02T07:40:49;100479.16;;;8.99;100.00
53932;BME280;39844;52.496;13.482;2024-03-02T07:43:14;100488.75;;;9.01;100.00
53932;BME280;39844;52.496;13.482;2024-03-02T07:45:40;100499.22;;;9.03;100.00
53932;BME280;39844;52.496;13.482;2024-03-02T07:48:06;100497.50;;;9.05;100.00
53932;BME280;39844;52.496;13.482;2024-03-02T07:50:31;100504.44;;;9.06;100.00
53932;BME280;39844;52.496;13.482;2024-03-02T07:52:56;100507.94;;;9.08;100.00
53932;BME280;39844;52.496;13.482;2024-03-02T07:55:22;100507.06;;;9.10;100.00
53932;BME280;39844;52.496;13.482;2024-03-02T07:57:47;100508.78;;;9.13;100.00
53932;BME280;39844;52.496;13.482;2024-03-02T08:00:12;100513.16;;;9.15;100.00
53932;BME280;39844;52.496;13.482;2024-03-02T08:02:40;100514.03;;;9.16;100.00
53932;BME280;39844;52.496;13.482;2024-03-02T08:05:06;100514.91;;;9.16;100.00
53932;BME280;39844;52.496;13.482;2024-03-02T08:07:31;100511.41;;;9.19;100.00
53932;BME280;39844;52.496;13.482;2024-03-02T08:09:56;100512.28;;;9.22;100.00
53932;BME280;39844;52.496;13.482;2024-03-02T08:12:22;100513.16;;;9.26;100.00
53932;BME280;39844;52.496;13.482;2024-03-02T08:14:47;100519.28;;;9.28;100.00
53932;BME280;39844;52.496;13.482;2024-03-02T08:17:12;100530.63;;;9.30;100.00
53932;BME280;39844;52.496;13.482;2024-03-02T08:19:38;100532.34;;;9.32;100.00
53932;BME280;39844;52.496;13.482;2024-03-02T08:22:03;100537.59;;;9.35;100.00
53932;BME280;39844;52.496;13.482;2024-03-02T08:24:28;100531.47;;;9.36;100.00
53932;BME280;39844;52.496;13.482;2024-03-02T08:26:54;100537.56;;;9.38;100.00
53932;BME280;39844;52.496;13.482;2024-03-02T08:29:19;100536.69;;;9.41;100.00
53932;BME280;39844;52.496;13.482;2024-03-02T08:31:44;100538.44;;;9.42;100.00
53932;BME280;39844;52.496;13.482;2024-03-02T08:34:09;100545.41;;;9.44;100.00
53932;BME280;39844;52.496;13.482;2024-03-02T08:36:35;100539.31;;;9.47;100.00
53932;BME280;39844;52.496;13.482;2024-03-02T08:39:00;100542.78;;;9.50;100.00
53932;BME280;39844;52.496;13.482;2024-03-02T08:41:26;100536.66;;;9.51;100.00
53932;BME280;39844;52.496;13.482;2024-03-02T08:43:51;100536.66;;;9.54;100.00
53932;BME280;39844;52.496;13.482;2024-03-02T08:46:16;100534.91;;;9.60;100.00
53932;BME280;39844;52.496;13.482;2024-03-02T08:48:42;100541.00;;;9.63;100.00
53932;BME280;39844;52.496;13.482;2024-03-02T08:51:07;100541.84;;;9.67;100.00
53932;BME280;39844;52.496;13.482;2024-03-02T08:53:33;100539.22;;;9.70;100.00
53932;BME280;39844;52.496;13.482;2024-03-02T08:55:58;100541.84;;;9.73;100.00
53932;BME280;39844;52.496;13.482;2024-03-02T08:58:23;100535.72;;;9.72;100.00
53932;BME280;39844;52.496;13.482;2024-03-02T09:00:49;100540.94;;;9.74;100.00
53932;BME280;39844;52.496;13.482;2024-03-02T09:03:14;100547.09;;;9.76;100.00
53932;BME280;39844;52.496;13.482;2024-03-02T09:05:39;100547.97;;;9.76;100.00
53932;BME280;39844;52.496;13.482;2024-03-02T09:08:05;100546.19;;;9.78;100.00
53932;BME280;39844;52.496;13.482;2024-03-02T09:10:30;100552.28;;;9.82;100.00
53932;BME280;39844;52.496;13.482;2024-03-02T09:12:56;100547.03;;;9.86;100.00
53932;BME280;39844;52.496;13.482;2024-03-02T09:15:21;100553.13;;;9.93;100.00
53932;BME280;39844;52.496;13.482;2024-03-02T09:17:46;100548.75;;;9.96;100.00
53932;BME280;39844;52.496;13.482;2024-03-02T09:20:12;100554.84;;;9.98;100.00
53932;BME280;39844;52.496;13.482;2024-03-02T09:22:37;100550.47;;;10.00;100.00
53932;BME280;39844;52.496;13.482;2024-03-02T09:25:02;100554.81;;;10.03;100.00
53932;BME280;39844;52.496;13.482;2024-03-02T09:27:28;100550.44;;;10.06;100.00
53932;BME280;39844;52.496;13.482;2024-03-02T09:29:53;100553.91;;;10.11;100.00
53932;BME280;39844;52.496;13.482;2024-03-02T09:32:18;100557.38;;;10.20;100.00
53932;BME280;39844;52.496;13.482;2024-03-02T09:34:43;100548.63;;;10.27;100.00
53932;BME280;39844;52.496;13.482;2024-03-02T09:37:09;100554.69;;;10.36;100.00
53932;BME280;39844;52.496;13.482;2024-03-02T09:39:34;100545.03;;;10.41;100.00
53932;BME280;39844;52.496;13.482;2024-03-02T09:41:59;100555.47;;;10.49;100.00
53932;BME280;39844;52.496;13.482;2024-03-02T09:44:29;100550.22;;;10.50;100.00
53932;BME280;39844;52.496;13.482;2024-03-02T09:46:54;100552.81;;;10.56;100.00
53932;BME280;39844;52.496;13.482;2024-03-02T09:49:20;100550.16;;;10.61;100.00
53932;BME280;39844;52.496;13.482;2024-03-02T09:51:49;100556.22;;;10.69;100.00
53932;BME280;39844;52.496;13.482;2024-03-02T09:54:17;100550.03;;;10.77;100.00
53932;BME280;39844;52.496;13.482;2024-03-02T09:56:42;100557.03;;;10.80;100.00
53932;BME280;39844;52.496;13.482;2024-03-02T09:59:08;100556.09;;;10.87;100.00
53932;BME280;39844;52.496;13.482;2024-03-02T10:01:33;100551.66;;;10.95;100.00
53932;BME280;39844;52.496;13.482;2024-03-02T10:03:59;100555.97;;;11.02;100.00
53932;BME280;39844;52.496;13.482;2024-03-02T10:06:26;100560.25;;;11.09;100.00
53932;BME280;39844;52.496;13.482;2024-03-02T10:08:53;100562.81;;;11.18;100.00
53932;BME280;39844;52.496;13.482;2024-03-02T10:11:33;100572.38;;;11.27;100.00
53932;BME280;39844;52.496;13.482;2024-03-02T10:14:12;100573.16;;;11.35;99.82
53932;BME280;39844;52.496;13.482;2024-03-02T10:16:39;100565.16;;;11.49;99.74
53932;BME280;39844;52.496;13.482;2024-03-02T10:19:18;100561.53;;;11.57;98.51
53932;BME280;39844;52.496;13.482;2024-03-02T10:21:48;100558.81;;;11.65;97.57
53932;BME280;39844;52.496;13.482;2024-03-02T10:24:13;100564.06;;;11.71;96.89
53932;BME280;39844;52.496;13.482;2024-03-02T10:26:39;100553.53;;;11.74;95.94
53932;BME280;39844;52.496;13.482;2024-03-02T10:29:04;100554.34;;;11.79;95.18
53932;BME280;39844;52.496;13.482;2024-03-02T10:31:30;100543.78;;;11.82;93.79
53932;BME280;39844;52.496;13.482;2024-03-02T10:33:55;100543.72;;;11.85;93.34
53932;BME280;39844;52.496;13.482;2024-03-02T10:36:21;100545.41;;;11.92;93.40
53932;BME280;39844;52.496;13.482;2024-03-02T10:38:46;100547.97;;;11.96;92.22
53932;BME280;39844;52.496;13.482;2024-03-02T10:41:16;100550.50;;;12.02;91.80
53932;BME280;39844;52.496;13.482;2024-03-02T10:43:41;100552.97;;;12.18;92.39
53932;BME280;39844;52.496;13.482;2024-03-02T10:46:07;100544.09;;;12.23;89.96
53932;BME280;39844;52.496;13.482;2024-03-02T10:48:33;100546.75;;;12.25;89.36
53932;BME280;39844;52.496;13.482;2024-03-02T10:51:00;100544.88;;;12.31;89.30
53932;BME280;39844;52.496;13.482;2024-03-02T10:53:25;100549.16;;;12.40;88.85
53932;BME280;39844;52.496;13.482;2024-03-02T10:55:57;100547.28;;;12.48;88.04
53932;BME280;39844;52.496;13.482;2024-03-02T10:58:24;100542.81;;;12.53;86.87
53932;BME280;39844;52.496;13.482;2024-03-02T11:00:53;100539.25;;;12.57;85.91
53932;BME280;39844;52.496;13.482;2024-03-02T11:03:19;100549.69;;;12.63;86.25
53932;BME280;39844;52.496;13.482;2024-03-02T11:05:45;100539.88;;;12.73;85.86
53932;BME280;39844;52.496;13.482;2024-03-02T11:08:14;100545.91;;;12.79;83.94
53932;BME280;39844;52.496;13.482;2024-03-02T11:10:50;100539.72;;;12.82;83.97
53932;BME280;39844;52.496;13.482;2024-03-02T11:13:21;100543.16;;;12.87;83.22
53932;BME280;39844;52.496;13.482;2024-03-02T11:15:47;100543.09;;;12.90;82.21
53932;BME280;39844;52.496;13.482;2024-03-02T11:18:13;100538.63;;;12.95;83.19
53932;BME280;39844;52.496;13.482;2024-03-02T11:20:40;100535.91;;;13.01;81.66
53932;BME280;39844;52.496;13.482;2024-03-02T11:23:08;100522.66;;;13.05;81.67
53932;BME280;39844;52.496;13.482;2024-03-02T11:25:33;100526.16;;;13.06;79.86
53932;BME280;39844;52.496;13.482;2024-03-02T11:28:00;100527.84;;;13.11;80.16
53932;BME280;39844;52.496;13.482;2024-03-02T11:33:11;100538.91;;;13.30;79.44
53932;BME280;39844;52.496;13.482;2024-03-02T11:35:37;100537.06;;;13.35;78.78
53932;BME280;39844;52.496;13.482;2024-03-02T11:38:03;100542.19;;;13.44;78.80
53932;BME280;39844;52.496;13.482;2024-03-02T11:40:30;100538.59;;;13.48;78.16
53932;BME280;39844;52.496;13.482;2024-03-02T11:42:57;100532.25;;;13.58;78.83
53932;BME280;39844;52.496;13.482;2024-03-02T11:45:25;100531.25;;;13.64;77.01
53932;BME280;39844;52.496;13.482;2024-03-02T11:47:51;100539.06;;;13.68;76.31
53932;BME280;39844;52.496;13.482;2024-03-02T11:50:49;100533.69;;;13.74;76.14
53932;BME280;39844;52.496;13.482;2024-03-02T11:53:14;100521.38;;;13.73;74.41
53932;BME280;39844;52.496;13.482;2024-03-02T11:55:40;100528.34;;;13.77;74.67
53932;BME280;39844;52.496;13.482;2024-03-02T11:58:05;100528.31;;;13.79;74.58
53932;BME280;39844;52.496;13.482;2024-03-02T12:00:31;100533.56;;;13.80;74.07
53932;BME280;39844;52.496;13.482;2024-03-02T12:03:07;100534.34;;;13.85;74.20
53932;BME280;39844;52.496;13.482;2024-03-02T12:05:34;100521.00;;;13.91;73.62
53932;BME280;39844;52.496;13.482;2024-03-02T12:08:01;100525.09;;;14.08;73.20
53932;BME280;39844;52.496;13.482;2024-03-02T12:10:27;100523.75;;;14.27;73.01
53932;BME280;39844;52.496;13.482;2024-03-02T12:13:00;100529.75;;;14.36;71.72
53932;BME280;39844;52.496;13.482;2024-03-02T12:15:30;100534.72;;;14.50;72.10
53932;BME280;39844;52.496;13.482;2024-03-02T12:17:57;100525.25;;;14.78;72.37
53932;BME280;39844;52.496;13.482;2024-03-02T12:20:24;100517.59;;;15.01;70.47
53932;BME280;39844;52.496;13.482;2024-03-02T12:22:51;100518.09;;;15.17;68.86
53932;BME280;39844;52.496;13.482;2024-03-02T12:25:17;100505.84;;;15.47;69.62
53932;BME280;39844;52.496;13.482;2024-03-02T12:27:42;100510.94;;;15.85;69.05
53932;BME280;39844;52.496;13.482;2024-03-02T12:30:07;100501.31;;;16.12;67.17
53932;BME280;39844;52.496;13.482;2024-03-02T12:32:33;100506.19;;;16.25;63.82
53932;BME280;39844;52.496;13.482;2024-03-02T12:34:58;100501.34;;;16.39;63.54
53932;BME280;39844;52.496;13.482;2024-03-02T12:37:24;100507.47;;;16.41;61.09
53932;BME280;39844;52.496;13.482;2024-03-02T12:39:49;100504.72;;;16.44;61.91